Time;durP1;ratioP1;P1;durP2;ratioP2;P2;SDS_P1;SDS_P2;PMS_P1;PMS_P2;Temp;Humidity;BMP_temperature;BMP_pressure;BME280_temperature;BME280_humidity;BME280_pressure;Samples;Min_cycle;Max_cycle;Signal;HPM_P1;HPM_P2
2022/03/19 00:02:24;;;;;;;21.48;12.35;;;;;;;;;;5086005;28;20050;-60
2022/03/19 00:04:51;;;;;;;23.33;11.25;;;;;;;;;;5087545;28;20032;-56
2022/03/19 00:07:17;;;;;;;24.08;11.75;;;;;;;;;;5087507;28;20012;-60
2022/03/19 00:09:43;;;;;;;30.38;13.18;;;;;;;;;;5087506;28;20388;-59
2022/03/19 00:12:14;;;;;;;23.05;12.35;;;;;;;;;;5087240;28;20032;-62
2022/03/19 00:14:40;;;;;;;25.70;11.75;;;;;;;;;;5087200;28;20024;-61
2022/03/19 00:17:07;;;;;;;24.77;12.02;;;;;;;;;;5087496;28;20111;-60
2022/03/19 00:19:32;;;;;;;21.67;11.65;;;;;;;;;;5088055;28;20032;-58
2022/03/19 00:21:58;;;;;;;27.27;14.02;;;;;;;;;;5086045;28;20453;-60
2022/03/19 00:24:25;;;;;;;24.00;12.48;;;;;;;;;;5087204;28;20032;-61
2022/03/19 00:26:50;;;;;;;23.98;13.05;;;;;;;;;;5085845;28;20142;-60
2022/03/19 00:29:16;;;;;;;23.52;12.80;;;;;;;;;;5086868;28;20575;-58
2022/03/19 00:31:42;;;;;;;25.23;12.23;;;;;;;;;;5085470;28;20118;-60
2022/03/19 00:34:08;;;;;;;24.55;12.98;;;;;;;;;;5087146;28;20137;-60
2022/03/19 00:36:34;;;;;;;23.73;12.32;;;;;;;;;;5087586;28;20099;-61
2022/03/19 00:39:01;;;;;;;24.10;12.38;;;;;;;;;;5091803;22;20528;-68
2022/03/19 00:41:27;;;;;;;28.05;13.95;;;;;;;;;;5024009;28;20056;-65
2022/03/19 00:43:53;;;;;;;24.08;12.90;;;;;;;;;;5029453;28;20060;-65
2022/03/19 00:46:19;;;;;;;31.42;12.82;;;;;;;;;;5032136;28;20017;-64
2022/03/19 00:48:46;;;;;;;22.50;12.85;;;;;;;;;;5032658;28;20042;-63
2022/03/19 00:51:12;;;;;;;26.52;13.20;;;;;;;;;;5035995;28;20013;-65
2022/03/19 00:53:38;;;;;;;24.73;13.30;;;;;;;;;;5034247;28;20067;-66
2022/03/19 00:56:04;;;;;;;23.98;12.98;;;;;;;;;;5035873;28;20097;-66
2022/03/19 00:58:31;;;;;;;22.75;12.43;;;;;;;;;;5035483;28;20030;-63
2022/03/19 01:00:57;;;;;;;25.70;13.50;;;;;;;;;;5035598;28;20032;-65
2022/03/19 01:03:23;;;;;;;24.08;11.90;;;;;;;;;;5034745;28;20393;-64
2022/03/19 01:05:49;;;;;;;25.80;12.45;;;;;;;;;;5035641;28;20027;-65
2022/03/19 01:08:15;;;;;;;25.67;12.05;;;;;;;;;;5035398;28;20065;-64
2022/03/19 01:10:41;;;;;;;26.17;13.10;;;;;;;;;;5035410;28;20101;-65
2022/03/19 01:13:07;;;;;;;23.10;12.57;;;;;;;;;;5036126;28;20025;-65
2022/03/19 01:15:33;;;;;;;23.90;13.40;;;;;;;;;;5034164;28;20025;-64
2022/03/19 01:18:00;;;;;;;23.15;12.77;;;;;;;;;;5035617;28;20022;-65
2022/03/19 01:20:27;;;;;;;23.33;12.35;;;;;;;;;;5035483;28;20394;-66
2022/03/19 01:22:53;;;;;;;27.17;13.32;;;;;;;;;;5035399;28;20429;-66
2022/03/19 01:25:19;;;;;;;25.02;12.55;;;;;;;;;;5034226;28;20030;-65
2022/03/19 01:27:47;;;;;;;21.85;12.43;;;;;;;;;;5033992;28;20375;-63
2022/03/19 01:30:14;;;;;;;23.23;12.73;;;;;;;;;;5033768;28;20037;-64
2022/03/19 01:32:41;;;;;;;25.08;13.07;;;;;;;;;;5035298;28;20029;-64
2022/03/19 01:35:07;;;;;;;24.52;12.23;;;;;;;;;;5034774;28;20037;-63
2022/03/19 01:37:33;;;;;;;25.23;13.13;;;;;;;;;;5033921;28;20029;-64
2022/03/19 01:39:59;;;;;;;24.73;12.98;;;;;;;;;;5034555;28;20062;-64
2022/03/19 01:42:26;;;;;;;26.27;13.00;;;;;;;;;;5034933;28;20044;-65
2022/03/19 01:44:53;;;;;;;26.45;13.10;;;;;;;;;;5034894;28;20022;-64
2022/03/19 01:47:19;;;;;;;23.58;13.68;;;;;;;;;;5035103;28;20397;-64
2022/03/19 01:49:45;;;;;;;25.35;13.70;;;;;;;;;;5034469;28;20069;-64
2022/03/19 01:52:11;;;;;;;26.08;12.60;;;;;;;;;;5034913;28;20033;-63
2022/03/19 01:54:38;;;;;;;24.38;14.50;;;;;;;;;;5034634;28;20428;-65
2022/03/19 01:57:05;;;;;;;26.08;11.77;;;;;;;;;;5034592;28;20331;-64
2022/03/19 01:59:32;;;;;;;23.85;12.57;;;;;;;;;;5033326;28;20032;-64
2022/03/19 02:01:59;;;;;;;25.08;12.13;;;;;;;;;;5034642;28;20041;-63
2022/03/19 02:04:25;;;;;;;24.75;12.10;;;;;;;;;;5034316;28;20022;-64
2022/03/19 02:06:51;;;;;;;27.63;12.32;;;;;;;;;;5035102;28;20026;-64
2022/03/19 02:09:17;;;;;;;27.10;12.25;;;;;;;;;;5033622;28;20025;-64
2022/03/19 02:11:44;;;;;;;24.10;11.00;;;;;;;;;;5035663;28;20017;-64
2022/03/19 02:14:10;;;;;;;21.98;11.38;;;;;;;;;;5035730;28;20112;-64
2022/03/19 02:16:36;;;;;;;25.10;12.20;;;;;;;;;;5034075;28;20071;-64
2022/03/19 02:19:02;;;;;;;28.13;13.38;;;;;;;;;;5034085;28;20055;-64
2022/03/19 02:21:38;;;;;;;25.42;12.00;;;;;;;;;;5032856;28;20029;-64
2022/03/19 02:26:49;;;;;;;30.33;13.25;;;;;;;;;;5033790;28;20037;-64
2022/03/19 02:29:15;;;;;;;25.50;10.93;;;;;;;;;;5032604;28;20014;-64
2022/03/19 02:31:42;;;;;;;23.20;11.27;;;;;;;;;;5032598;28;20481;-65
2022/03/19 02:34:08;;;;;;;22.00;12.07;;;;;;;;;;5034257;28;20029;-64
2022/03/19 02:36:40;;;;;;;23.55;11.55;;;;;;;;;;5033981;28;20393;-64
2022/03/19 02:39:21;;;;;;;23.15;12.32;;;;;;;;;;5033568;28;20091;-64
2022/03/19 02:41:48;;;;;;;24.50;13.23;;;;;;;;;;5033880;28;20060;-64
2022/03/19 02:44:16;;;;;;;22.70;11.75;;;;;;;;;;5033475;28;20554;-64
2022/03/19 02:46:43;;;;;;;23.63;11.25;;;;;;;;;;5033695;28;20042;-64
2022/03/19 02:49:09;;;;;;;22.55;10.70;;;;;;;;;;5033411;28;20060;-64
2022/03/19 02:51:36;;;;;;;29.42;12.13;;;;;;;;;;5033347;28;20026;-64
2022/03/19 02:54:05;;;;;;;25.00;11.63;;;;;;;;;;5033714;28;20022;-66
2022/03/19 02:56:33;;;;;;;22.88;11.75;;;;;;;;;;5033812;28;20022;-65
2022/03/19 02:59:05;;;;;;;23.20;11.50;;;;;;;;;;5032167;28;20049;-63
2022/03/19 03:01:31;;;;;;;24.42;12.75;;;;;;;;;;5033786;28;20029;-63
2022/03/19 03:03:57;;;;;;;21.60;10.73;;;;;;;;;;5033650;28;20034;-63
2022/03/19 03:06:24;;;;;;;23.10;12.23;;;;;;;;;;5033614;28;20033;-64
2022/03/19 03:08:50;;;;;;;23.45;11.75;;;;;;;;;;5033438;28;20033;-64
2022/03/19 03:11:17;;;;;;;25.40;11.45;;;;;;;;;;5033817;28;20029;-64
2022/03/19 03:13:44;;;;;;;23.98;12.38;;;;;;;;;;5033652;28;20109;-64
2022/03/19 03:16:10;;;;;;;23.73;11.90;;;;;;;;;;5033378;28;20025;-63
2022/03/19 03:18:36;;;;;;;23.33;11.75;;;;;;;;;;5033452;28;20037;-63
2022/03/19 03:21:02;;;;;;;26.33;11.98;;;;;;;;;;5033122;28;20053;-64
2022/03/19 03:23:28;;;;;;;24.77;11.77;;;;;;;;;;5031907;28;20080;-65
2022/03/19 03:25:54;;;;;;;22.70;11.88;;;;;;;;;;5031231;28;20159;-65
2022/03/19 03:28:20;;;;;;;25.95;13.77;;;;;;;;;;5032748;28;20021;-65
2022/03/19 03:30:46;;;;;;;23.13;11.90;;;;;;;;;;5032710;28;20117;-65
2022/03/19 03:33:12;;;;;;;25.58;11.93;;;;;;;;;;5034459;28;20039;-65
2022/03/19 03:35:38;;;;;;;26.73;12.90;;;;;;;;;;5032940;28;20059;-65
2022/03/19 03:38:04;;;;;;;37.72;13.68;;;;;;;;;;5031747;28;20083;-66
2022/03/19 03:40:30;;;;;;;27.48;12.13;;;;;;;;;;5032805;28;20030;-65
2022/03/19 03:42:56;;;;;;;37.00;12.32;;;;;;;;;;5032826;28;20109;-65
2022/03/19 03:45:22;;;;;;;23.67;11.73;;;;;;;;;;5032762;28;20473;-66
2022/03/19 03:47:49;;;;;;;21.40;10.88;;;;;;;;;;5033113;28;20021;-65
2022/03/19 03:50:16;;;;;;;22.77;10.27;;;;;;;;;;5031811;28;20048;-66
2022/03/19 03:52:42;;;;;;;23.98;10.52;;;;;;;;;;5033158;28;20025;-65
2022/03/19 03:55:09;;;;;;;25.65;10.18;;;;;;;;;;5032918;28;20033;-65
2022/03/19 03:57:36;;;;;;;20.92;10.15;;;;;;;;;;5033189;28;20029;-66
2022/03/19 04:00:02;;;;;;;23.20;10.75;;;;;;;;;;5033089;28;20053;-65
2022/03/19 04:02:28;;;;;;;32.25;10.95;;;;;;;;;;5031801;28;20021;-65
2022/03/19 04:04:54;;;;;;;25.42;10.98;;;;;;;;;;5032757;28;20030;-65
2022/03/19 04:07:21;;;;;;;24.20;12.02;;;;;;;;;;5032781;28;20022;-65
2022/03/19 04:09:47;;;;;;;23.27;10.85;;;;;;;;;;5032353;28;20032;-65
2022/03/19 04:12:14;;;;;;;19.98;9.25;;;;;;;;;;5032936;28;20057;-65
2022/03/19 04:14:40;;;;;;;21.65;11.10;;;;;;;;;;5032592;28;20048;-64
2022/03/19 04:17:07;;;;;;;21.45;10.07;;;;;;;;;;5032446;28;20109;-66
2022/03/19 04:19:33;;;;;;;21.85;10.93;;;;;;;;;;5032314;28;20025;-65
2022/03/19 04:21:59;;;;;;;23.05;9.60;;;;;;;;;;5032739;28;20080;-66
2022/03/19 04:24:25;;;;;;;20.63;10.10;;;;;;;;;;5016273;28;20032;-66
2022/03/19 04:26:51;;;;;;;21.95;9.93;;;;;;;;;;5036502;28;20492;-64
2022/03/19 04:29:17;;;;;;;25.13;9.63;;;;;;;;;;5036883;28;20025;-63
2022/03/19 04:31:44;;;;;;;20.95;10.30;;;;;;;;;;5036598;28;20025;-65
2022/03/19 04:34:10;;;;;;;22.33;9.27;;;;;;;;;;5036722;28;20112;-65
2022/03/19 04:36:37;;;;;;;20.85;9.70;;;;;;;;;;5019147;28;20389;-65
2022/03/19 04:39:04;;;;;;;24.98;9.25;;;;;;;;;;5036000;28;20033;-66
2022/03/19 04:41:30;;;;;;;23.25;10.60;;;;;;;;;;5036359;28;20025;-65
2022/03/19 04:43:56;;;;;;;24.70;9.57;;;;;;;;;;5036363;28;20025;-65
2022/03/19 04:46:22;;;;;;;21.42;8.82;;;;;;;;;;5036044;28;20021;-65
2022/03/19 04:48:48;;;;;;;18.13;8.82;;;;;;;;;;5036379;28;20022;-64
2022/03/19 04:51:15;;;;;;;21.30;10.45;;;;;;;;;;5035636;28;20025;-65
2022/03/19 04:53:41;;;;;;;22.45;8.82;;;;;;;;;;5034753;28;20041;-65
2022/03/19 04:56:07;;;;;;;20.88;8.93;;;;;;;;;;5035376;28;20520;-65
2022/03/19 04:58:34;;;;;;;22.27;8.90;;;;;;;;;;5034503;28;20064;-64
2022/03/19 05:01:00;;;;;;;24.55;9.60;;;;;;;;;;5035077;28;20030;-65
2022/03/19 05:03:27;;;;;;;23.17;11.50;;;;;;;;;;5035658;28;20037;-65
2022/03/19 05:05:53;;;;;;;21.20;9.63;;;;;;;;;;5035737;28;20075;-65
2022/03/19 05:08:19;;;;;;;19.52;8.57;;;;;;;;;;5034875;28;20440;-65
2022/03/19 05:13:30;;;;;;;21.63;8.43;;;;;;;;;;5035703;28;20044;-64
2022/03/19 05:15:56;;;;;;;22.50;9.52;;;;;;;;;;5035466;28;20040;-65
2022/03/19 05:18:23;;;;;;;19.65;9.25;;;;;;;;;;5017967;28;20025;-65
2022/03/19 05:20:49;;;;;;;20.33;9.23;;;;;;;;;;5035637;28;20494;-65
2022/03/19 05:23:15;;;;;;;23.48;10.13;;;;;;;;;;5017966;28;20029;-65
2022/03/19 05:25:41;;;;;;;22.83;10.35;;;;;;;;;;5034365;28;20025;-65
2022/03/19 05:28:07;;;;;;;24.33;9.02;;;;;;;;;;5034040;28;20076;-65
2022/03/19 05:30:33;;;;;;;18.08;9.88;;;;;;;;;;5035325;28;20080;-65
2022/03/19 05:32:59;;;;;;;21.23;9.30;;;;;;;;;;5035491;28;20021;-65
2022/03/19 05:35:26;;;;;;;19.20;8.52;;;;;;;;;;5034788;28;20393;-64
2022/03/19 05:37:52;;;;;;;23.30;9.05;;;;;;;;;;5035268;28;20028;-65
2022/03/19 05:40:18;;;;;;;22.50;10.38;;;;;;;;;;5034581;28;20405;-64
2022/03/19 05:42:44;;;;;;;22.67;8.88;;;;;;;;;;5035127;28;20488;-65
2022/03/19 05:45:10;;;;;;;23.48;10.32;;;;;;;;;;5034949;28;20029;-64
2022/03/19 05:47:38;;;;;;;24.67;9.68;;;;;;;;;;5033759;28;20477;-66
2022/03/19 05:50:05;;;;;;;24.67;10.65;;;;;;;;;;5034686;28;20104;-65
2022/03/19 05:52:31;;;;;;;22.27;10.43;;;;;;;;;;5035095;28;20179;-63
2022/03/19 05:54:57;;;;;;;22.63;10.25;;;;;;;;;;5034877;28;20033;-65
2022/03/19 05:57:23;;;;;;;22.23;10.10;;;;;;;;;;5034969;28;20504;-65
2022/03/19 05:59:49;;;;;;;23.35;10.80;;;;;;;;;;5034790;28;20061;-65
2022/03/19 06:02:15;;;;;;;24.65;10.35;;;;;;;;;;5034724;28;20040;-66
2022/03/19 06:04:41;;;;;;;21.73;10.60;;;;;;;;;;5034819;28;20474;-65
2022/03/19 06:07:07;;;;;;;26.70;11.10;;;;;;;;;;5034647;28;20739;-68
2022/03/19 06:09:33;;;;;;;22.63;10.60;;;;;;;;;;5034477;28;20055;-64
2022/03/19 06:11:59;;;;;;;23.50;11.48;;;;;;;;;;5034587;28;20362;-64
2022/03/19 06:14:25;;;;;;;25.85;12.00;;;;;;;;;;5034503;28;20504;-64
2022/03/19 06:16:51;;;;;;;25.55;11.18;;;;;;;;;;5032998;28;20116;-64
2022/03/19 06:19:17;;;;;;;24.60;11.60;;;;;;;;;;5034245;28;20068;-65
2022/03/19 06:21:43;;;;;;;22.45;11.10;;;;;;;;;;5033966;28;20017;-65
2022/03/19 06:24:09;;;;;;;24.02;10.82;;;;;;;;;;5034068;28;20045;-65
2022/03/19 06:26:36;;;;;;;28.85;12.90;;;;;;;;;;5034676;28;20405;-65
2022/03/19 06:29:02;;;;;;;31.88;13.48;;;;;;;;;;5034256;28;20068;-65
2022/03/19 06:31:29;;;;;;;24.65;10.35;;;;;;;;;;5034320;28;20023;-64
2022/03/19 06:33:55;;;;;;;25.95;10.23;;;;;;;;;;5034429;28;20026;-65
2022/03/19 06:39:06;;;;;;;21.33;10.60;;;;;;;;;;5034970;28;20047;-64
2022/03/19 06:41:32;;;;;;;22.17;9.98;;;;;;;;;;5034335;28;20029;-65
2022/03/19 06:43:58;;;;;;;22.85;11.18;;;;;;;;;;5034011;28;20029;-66
2022/03/19 06:46:25;;;;;;;23.08;10.40;;;;;;;;;;5033117;28;20100;-66
2022/03/19 06:48:51;;;;;;;25.13;10.30;;;;;;;;;;5033827;28;20440;-64
2022/03/19 06:51:20;;;;;;;23.13;11.75;;;;;;;;;;5033899;28;20083;-65
2022/03/19 06:53:47;;;;;;;26.13;11.13;;;;;;;;;;5033941;28;20079;-64
2022/03/19 06:56:13;;;;;;;23.70;10.45;;;;;;;;;;5033945;28;20040;-64
2022/03/19 06:58:39;;;;;;;24.20;10.18;;;;;;;;;;5034011;28;20080;-64
2022/03/19 07:01:05;;;;;;;25.13;9.45;;;;;;;;;;5033693;28;20056;-65
2022/03/19 07:03:32;;;;;;;24.17;10.48;;;;;;;;;;5033733;28;20085;-65
2022/03/19 07:05:58;;;;;;;19.75;9.75;;;;;;;;;;5032293;28;20029;-65
2022/03/19 07:08:27;;;;;;;26.95;9.90;;;;;;;;;;5034326;28;20017;-64
2022/03/19 07:10:53;;;;;;;23.17;9.38;;;;;;;;;;5015898;28;20022;-64
2022/03/19 07:13:19;;;;;;;20.25;9.77;;;;;;;;;;5033671;28;20056;-64
2022/03/19 07:15:45;;;;;;;23.48;10.10;;;;;;;;;;5033813;28;20108;-64
2022/03/19 07:18:11;;;;;;;17.95;8.68;;;;;;;;;;5033723;28;20477;-65
2022/03/19 07:20:37;;;;;;;24.58;9.43;;;;;;;;;;5044957;28;20052;-64
2022/03/19 07:23:04;;;;;;;26.48;10.32;;;;;;;;;;5053463;28;20410;-64
2022/03/19 07:25:31;;;;;;;33.50;13.05;;;;;;;;;;5035042;28;20100;-65
2022/03/19 07:27:59;;;;;;;25.38;9.60;;;;;;;;;;5053173;28;20017;-65
2022/03/19 07:30:26;;;;;;;26.42;9.48;;;;;;;;;;5052871;28;20481;-64
2022/03/19 07:32:52;;;;;;;21.85;9.52;;;;;;;;;;5053190;28;20083;-64
2022/03/19 07:35:18;;;;;;;19.60;9.88;;;;;;;;;;5048012;28;20028;-65
2022/03/19 07:37:44;;;;;;;26.25;11.23;;;;;;;;;;5053303;28;20599;-64
2022/03/19 07:40:11;;;;;;;21.52;9.30;;;;;;;;;;5053051;28;20029;-64
2022/03/19 07:42:37;;;;;;;25.75;11.73;;;;;;;;;;5035293;28;20032;-65
2022/03/19 07:45:04;;;;;;;22.67;9.30;;;;;;;;;;5051979;28;20017;-65
2022/03/19 07:47:30;;;;;;;19.42;8.55;;;;;;;;;;5052545;28;20017;-64
2022/03/19 07:49:56;;;;;;;20.80;9.15;;;;;;;;;;5049394;28;20482;-64
2022/03/19 07:52:24;;;;;;;21.23;9.02;;;9.80;98.90;;;;;;5035123;28;20393;-65
2022/03/19 07:54:50;;;;;;;24.20;9.63;;;7.00;99.90;;;;;;5053296;28;20036;-66
2022/03/19 07:57:15;;;;;;;21.23;8.70;;;6.90;99.90;;;;;;5054089;28;20032;-64
2022/03/19 07:59:41;;;;;;;21.45;8.68;;;7.00;99.90;;;;;;5031945;28;20494;-65
2022/03/19 08:02:07;;;;;;;23.67;8.57;;;7.00;99.90;;;;;;5034500;28;20112;-65
2022/03/19 08:04:32;;;;;;;21.90;8.70;;;7.10;99.90;;;;;;5052804;28;20028;-65
2022/03/19 08:06:58;;;;;;;23.05;9.13;;;;;;;;;;5052422;28;20014;-64
2022/03/19 08:09:24;;;;;;;21.40;8.55;;;;;;;;;;5051948;28;20018;-64
2022/03/19 08:11:51;;;;;;;18.83;8.63;;;;;;;;;;5052293;28;20063;-64
2022/03/19 08:14:17;;;;;;;26.55;10.88;;;;;;;;;;5052367;28;20082;-65
2022/03/19 08:16:46;;;;;;;20.35;9.23;;;;;;;;;;5034708;28;20036;-65
2022/03/19 08:19:12;;;;;;;22.42;8.43;;;;;;;;;;5052266;28;20031;-65
2022/03/19 08:21:39;;;;;;;23.05;8.95;;;;;;;;;;5052611;28;20440;-63
2022/03/19 08:24:05;;;;;;;21.02;9.18;;;;;;;;;;5052199;28;20025;-65
2022/03/19 08:26:31;;;;;;;21.95;8.32;;;;;;;;;;5052336;28;20029;-65
2022/03/19 08:28:58;;;;;;;21.50;8.13;;;;;;;;;;5051965;28;20021;-64
2022/03/19 08:31:24;;;;;;;20.90;8.30;;;;;;;;;;5052534;28;20108;-64
2022/03/19 08:33:50;;;;;;;21.55;7.72;;;;;;;;;;5028050;28;20037;-65
2022/03/19 08:36:16;;;;;;;20.30;9.48;;;;;;;;;;5045839;28;20028;-64
2022/03/19 08:41:26;;;;;;;20.48;8.57;;;;;;;;;;5052030;28;20071;-65
2022/03/19 08:43:52;;;;;;;17.73;7.82;;;7.20;99.90;;;;;;5051459;28;20061;-61
2022/03/19 08:46:19;;;;;;;17.77;8.15;;;8.00;99.90;;;;;;5051899;28;20026;-66
2022/03/19 08:48:45;;;;;;;21.35;8.63;;;8.00;99.90;;;;;;5052195;28;20060;-65
2022/03/19 08:53:54;;;;;;;20.17;7.47;;;8.10;99.90;;;;;;5052013;28;20035;-64
2022/03/19 08:56:21;;;;;;;21.13;8.30;;;8.20;99.90;;;;;;5051833;28;20029;-65
2022/03/19 08:58:47;;;;;;;19.73;8.20;;;8.20;99.90;;;;;;5051610;28;20052;-62
2022/03/19 09:01:13;;;;;;;17.50;7.82;;;8.20;99.90;;;;;;5051834;28;20037;-65
2022/03/19 09:03:39;;;;;;;19.80;7.63;;;;;;;;;;5051783;28;20035;-64
2022/03/19 09:06:05;;;;;;;17.58;8.68;;;;;;;;;;5052029;28;20091;-67
2022/03/19 09:08:31;;;;;;;20.55;8.45;;;;;;;;;;5033755;28;20045;-66
2022/03/19 09:10:57;;;;;;;22.67;8.68;;;;;;;;;;5036210;28;20074;-65
2022/03/19 09:13:23;;;;;;;18.67;8.27;;;8.30;99.90;;;;;;5037636;28;20025;-63
2022/03/19 09:15:49;;;;;;;18.55;8.13;;;8.80;99.90;;;;;;5055472;28;20028;-65
2022/03/19 09:18:16;;;;;;;18.95;8.52;;;8.90;99.90;;;;;;5055576;28;20049;-65
2022/03/19 09:20:41;;;;;;;21.00;9.73;;;8.90;99.90;;;;;;5037348;28;20025;-64
2022/03/19 09:23:08;;;;;;;19.90;8.88;;;9.00;99.90;;;;;;5055162;28;20032;-64
2022/03/19 09:25:35;;;;;;;19.33;8.07;;;;;;;;;;5055210;28;20024;-64
2022/03/19 09:28:01;;;;;;;20.93;9.23;;;;;;;;;;4697803;28;10000163;-59
2022/03/19 09:30:27;;;;;;;22.17;9.57;;;;;;;;;;5051738;28;20029;-63
2022/03/19 09:32:56;;;;;;;17.90;9.00;;;;;;;;;;5052117;28;20068;-63
2022/03/19 09:35:23;;;;;;;19.88;9.05;;;;;;;;;;5033488;28;20116;-64
2022/03/19 09:37:49;;;;;;;20.25;8.90;;;;;;;;;;5051138;28;20021;-63
2022/03/19 09:40:15;;;;;;;19.48;8.95;;;;;;;;;;5050883;28;20032;-63
2022/03/19 09:42:51;;;;;;;20.10;8.30;;;;;;;;;;5051594;28;20059;-64
2022/03/19 09:45:21;;;;;;;19.60;9.18;;;;;;;;;;5048816;28;20032;-64
2022/03/19 09:47:48;;;;;;;18.73;9.35;;;;;;;;;;5035084;28;20063;-64
2022/03/19 09:50:14;;;;;;;19.13;8.70;;;;;;;;;;5051853;28;20033;-64
2022/03/19 09:52:42;;;;;;;16.70;8.68;;;;;;;;;;5051744;28;20021;-64
2022/03/19 09:55:09;;;;;;;17.83;8.60;;;;;;;;;;5033442;28;20033;-61
2022/03/19 09:57:35;;;;;;;17.63;8.50;;;;;;;;;;5051983;28;20051;-61
2022/03/19 10:00:01;;;;;;;20.98;9.15;;;;;;;;;;5051365;28;20033;-61
2022/03/19 10:02:27;;;;;;;21.00;8.50;;;;;;;;;;5050943;28;20080;-61
2022/03/19 10:04:54;;;;;;;19.80;8.20;;;;;;;;;;5051302;28;20049;-62
2022/03/19 10:10:09;;;;;;;17.30;8.02;;;;;;;;;;5053388;28;20086;-67
2022/03/19 10:12:36;;;;;;;19.30;8.85;;;;;;;;;;5053148;28;20043;-67
2022/03/19 10:15:09;;;;;;;19.65;8.02;;;;;;;;;;5054318;28;20486;-68
2022/03/19 10:17:36;;;;;;;17.65;7.57;;;;;;;;;;5054367;28;20032;-67
2022/03/19 10:20:09;;;;;;;18.08;7.80;;;;;;;;;;5053694;28;20495;-68
2022/03/19 10:22:38;;;;;;;20.15;8.25;;;;;;;;;;5054158;28;20029;-67
2022/03/19 10:25:07;;;;;;;23.80;9.20;;;;;;;;;;5036367;28;20025;-66
2022/03/19 10:27:38;;;;;;;24.05;9.50;;;9.00;99.90;;;;;;5053777;28;20021;-65
2022/03/19 10:30:16;;;;;;;19.30;8.65;;;10.90;93.70;;;;;;5053047;28;20071;-67
2022/03/19 10:32:46;;;;;;;22.63;7.63;;;10.70;92.20;;;;;;5053361;28;20025;-67
2022/03/19 10:35:39;;;;;;;19.10;7.95;;;10.80;92.50;;;;;;5053253;28;20083;-65
2022/03/19 10:38:16;;;;;;;16.83;7.75;;;10.60;91.20;;;;;;5034060;28;20040;-66
2022/03/19 10:40:45;;;;;;;17.50;7.13;;;10.50;91.10;;;;;;5033950;28;20030;-66
2022/03/19 10:43:11;;;;;;;18.48;8.10;;;10.70;91.90;;;;;;5033700;28;20025;-65
2022/03/19 10:45:51;;;;;;;15.20;7.65;;;10.80;90.80;;;;;;5033417;28;20182;-66
2022/03/19 10:48:24;;;;;;;19.83;8.25;;;11.00;91.00;;;;;;5033341;28;20104;-65
2022/03/19 10:50:51;;;;;;;14.63;7.40;;;11.00;90.60;;;;;;5033209;28;20390;-66
2022/03/19 10:53:18;;;;;;;15.88;7.30;;;10.80;89.50;;;;;;5016248;28;20084;-66
2022/03/19 10:55:44;;;;;;;18.83;7.63;;;10.90;88.90;;;;;;5051237;28;20083;-66
2022/03/19 10:58:10;;;;;;;18.60;7.40;;;11.00;87.50;;;;;;5051717;28;20028;-67
2022/03/19 11:00:36;;;;;;;15.80;7.35;;;11.00;87.00;;;;;;5050947;28;20024;-66
2022/03/19 11:03:24;;;;;;;19.17;7.70;;;;;;;;;;4668438;28;10001234;-65
2022/03/19 11:05:56;;;;;;;16.88;7.88;;;;;;;;;;5013641;28;20222;-64
2022/03/19 11:08:23;;;;;;;16.35;7.75;;;;;;;;;;5030969;28;20515;-66
2022/03/19 11:10:50;;;;;;;18.13;7.53;;;;;;;;;;5031941;28;20031;-67
2022/03/19 11:13:20;;;;;;;16.42;7.43;;;;;;;;;;4683618;28;10000253;-64
2022/03/19 11:15:50;;;;;;;17.08;7.70;;;11.20;86.70;;;;;;5030601;28;20032;-66
2022/03/19 11:18:19;;;;;;;16.85;7.57;;;12.50;87.20;;;;;;5031358;28;20022;-64
2022/03/19 11:20:46;;;;;;;18.33;8.20;;;12.60;81.10;;;;;;5030943;28;20025;-63
2022/03/19 11:23:13;;;;;;;16.38;7.60;;;;;;;;;;5029852;28;20079;-64
2022/03/19 11:25:47;;;;;;;19.27;8.88;;;13.20;78.30;;;;;;5030100;28;20072;-64
2022/03/19 11:28:14;;;;;;;23.63;8.20;;;14.00;76.40;;;;;;5022008;28;20074;-65
2022/03/19 11:30:57;;;;;;;19.20;8.52;;;15.00;76.60;;;;;;5049712;28;20021;-65
2022/03/19 11:33:24;;;;;;;16.33;7.95;;;15.70;73.50;;;;;;5049780;28;20029;-65
2022/03/19 11:35:59;;;;;;;17.17;9.13;;;16.60;70.80;;;;;;5033237;28;20550;-63
2022/03/19 11:38:25;;;;;;;16.70;8.18;;;16.70;70.00;;;;;;5047409;28;20721;-62
2022/03/19 11:40:55;;;;;;;17.25;8.00;;;16.00;66.70;;;;;;5036192;28;20408;-65
2022/03/19 11:43:26;;;;;;;19.38;8.68;;;15.80;65.40;;;;;;5052695;28;20031;-62
2022/03/19 11:45:59;;;;;;;15.65;8.52;;;16.70;65.10;;;;;;5033673;28;20029;-59
2022/03/19 11:48:48;;;;;;;15.82;8.60;;;16.80;61.70;;;;;;5053029;28;20044;-67
2022/03/19 11:51:44;;;;;;;15.85;9.32;;;16.50;62.20;;;;;;5052709;28;20017;-66
2022/03/19 11:54:17;;;;;;;16.77;9.18;;;17.60;62.80;;;;;;5052889;28;20485;-65
2022/03/19 21:14:55;;;;;;;16.48;8.68;;;;;;;;;;4751010;27;10001751;-55
2022/03/19 21:17:23;;;;;;;16.40;8.20;;;;;;;;;;5103581;28;20035;-58
2022/03/19 21:19:49;;;;;;;16.05;9.07;;;;;;;;;;5088297;28;20429;-51
2022/03/19 21:22:15;;;;;;;16.58;8.40;;;;;;;;;;5085804;28;20100;-55
2022/03/19 21:24:41;;;;;;;17.15;8.15;;;;;;;;;;5085584;28;20451;-50
2022/03/19 21:27:07;;;;;;;17.50;8.23;;;;;;;;;;5087011;28;20036;-65
2022/03/19 21:29:33;;;;;;;17.33;8.30;;;;;;;;;;5085700;28;20545;-66
2022/03/19 21:31:59;;;;;;;19.27;9.15;;;;;;;;;;5087473;28;20040;-66
2022/03/19 21:34:25;;;;;;;16.55;9.55;;;;;;;;;;5087028;28;20020;-65
2022/03/19 21:36:51;;;;;;;19.85;9.68;;;;;;;;;;5085363;28;20522;-66
2022/03/19 21:42:15;;;;;;;;;;;;;;;;;;5051919;28;20074;-66
2022/03/19 21:44:41;;;;;;;23.90;11.77;;;;;;;;;;5085502;28;19904;-66
2022/03/19 21:47:07;;;;;;;21.25;12.82;;;;;;;;;;5086109;28;20063;-66
2022/03/19 21:49:33;;;;;;;22.30;13.00;;;;;;;;;;5086673;28;20025;-65
2022/03/19 21:51:59;;;;;;;25.38;13.95;;;;;;;;;;5086914;28;20039;-66
2022/03/19 21:54:26;;;;;;;21.50;12.65;;;;;;;;;;5088128;28;20024;-65
2022/03/19 21:56:52;;;;;;;24.25;13.35;;;;;;;;;;5098250;28;20028;-66
2022/03/19 21:59:18;;;;;;;23.17;13.40;;;;;;;;;;5088643;28;20032;-67
2022/03/19 22:01:45;;;;;;;26.38;14.35;;;;;;;;;;5085216;28;20020;-66
2022/03/19 22:04:12;;;;;;;23.48;14.23;;;;;;;;;;5086163;28;20180;-67
2022/03/19 22:06:38;;;;;;;28.20;15.00;;;;;;;;;;5086049;28;20115;-67
2022/03/19 22:09:04;;;;;;;23.40;14.27;;;;;;;;;;5084946;28;20024;-67
2022/03/19 22:11:31;;;;;;;21.33;12.88;;;;;;;;;;5085835;28;20618;-68
2022/03/19 22:13:57;;;;;;;23.67;12.95;;;;;;;;;;5085735;28;20063;-68
2022/03/19 22:16:23;;;;;;;27.98;14.98;;;;;;;;;;5084979;28;20060;-68
2022/03/19 22:18:50;;;;;;;27.17;14.98;;;;;;;;;;5084761;28;20496;-66
2022/03/19 22:21:16;;;;;;;27.15;15.02;;;;;;;;;;5086417;28;20024;-66
2022/03/19 22:23:42;;;;;;;23.77;14.75;;;;;;;;;;5084868;28;20086;-64
2022/03/19 22:26:09;;;;;;;27.13;15.98;;;;;;;;;;5072873;28;20504;-66
2022/03/19 22:28:34;;;;;;;25.65;14.80;;;;;;;;;;5072595;28;20488;-65
2022/03/19 22:31:04;;;;;;;26.63;13.95;;;;;;;;;;5073118;28;20035;-67
2022/03/19 22:33:30;;;;;;;24.58;14.90;;;;;;;;;;5072919;28;20031;-67
2022/03/19 22:35:57;;;;;;;25.63;15.30;;;;;;;;;;5072182;28;20032;-65
2022/03/19 22:38:23;;;;;;;25.88;15.68;;;;;;;;;;5071077;28;20047;-65
2022/03/19 22:40:49;;;;;;;27.63;16.23;;;;;;;;;;5071026;28;20497;-67
2022/03/19 22:43:15;;;;;;;27.10;16.25;;;;;;;;;;5072700;28;20397;-65
2022/03/19 22:45:42;;;;;;;26.00;15.70;;;;;;;;;;5070710;28;20024;-65
2022/03/19 22:48:08;;;;;;;27.27;16.25;;;;;;;;;;5072780;28;20024;-69
2022/03/19 22:50:35;;;;;;;25.50;14.75;;;;;;;;;;5072326;28;20028;-66
2022/03/19 22:53:02;;;;;;;26.40;16.23;;;;;;;;;;5072196;28;20091;-67
2022/03/19 22:55:29;;;;;;;29.17;16.60;;;;;;;;;;5071518;28;20056;-65
2022/03/19 22:57:55;;;;;;;26.15;16.63;;;;;;;;;;5071249;28;20027;-67
2022/03/19 23:00:21;;;;;;;27.83;16.15;;;;;;;;;;5070645;28;20127;-66
2022/03/19 23:02:47;;;;;;;26.67;16.42;;;;;;;;;;5071807;28;20147;-66
2022/03/19 23:05:13;;;;;;;29.92;16.63;;;;;;;;;;5071555;28;20066;-65
2022/03/19 23:07:39;;;;;;;27.15;15.90;;;;;;;;;;5070561;28;20419;-67
2022/03/19 23:10:05;;;;;;;29.55;17.40;;;;;;;;;;5071712;28;20040;-65
2022/03/19 23:12:31;;;;;;;32.08;17.83;;;;;;;;;;5071629;28;20724;-66
2022/03/19 23:14:58;;;;;;;30.27;18.02;;;;;;;;;;5052269;28;20493;-66
2022/03/19 23:17:24;;;;;;;27.55;18.05;;;;;;;;;;5065658;28;20025;-64
2022/03/19 23:19:50;;;;;;;28.45;17.13;;;;;;;;;;5070808;28;20059;-65
2022/03/19 23:22:16;;;;;;;29.50;18.50;;;;;;;;;;5071548;28;20479;-64
2022/03/19 23:24:42;;;;;;;30.10;17.52;;;;;;;;;;5070003;28;20031;-64
2022/03/19 23:27:08;;;;;;;31.10;18.98;;;;;;;;;;5071336;28;20028;-66
2022/03/19 23:29:35;;;;;;;29.17;18.05;;;;;;;;;;5071623;28;20028;-65
2022/03/19 23:32:01;;;;;;;31.30;18.60;;;;;;;;;;5070330;28;20404;-65
2022/03/19 23:34:28;;;;;;;29.42;17.55;;;;;;;;;;5069774;28;20051;-68
2022/03/19 23:36:54;;;;;;;29.13;17.10;;;;;;;;;;5070550;28;20056;-64
2022/03/19 23:39:20;;;;;;;35.13;18.25;;;;;;;;;;5069684;28;20032;-66
2022/03/19 23:41:46;;;;;;;28.08;17.52;;;;;;;;;;5071503;28;20020;-64
2022/03/19 23:44:12;;;;;;;31.42;19.38;;;;;;;;;;5071024;28;20085;-65